CYYJ/YYJ METAR and TAF weather

Enter ICAO airport designator
Station Type Date Time Source
CYYJ METAR 2019/08/21 22:00 UTC NOAA

CYYJ 212200Z 11009KT 8SM FEW005 FEW025 SCT060 BKN074 16/16 A2994 RMK SF1SC1SC3AC4 SF TR SC TR SLP141 DENSITY ALT 200FT


Station Type Date Time Source
CYYJ Decoded METAR 2019/08/21 22:00 UTC NOAA

Station name not available
Aug 21, 2019 - 06:00 PM EDT / 2019.08.21 2200 UTC
Wind: from the ESE (110 degrees) at 10 MPH (9 KT):0
Visibility: 8 mile(s):0
Sky conditions: mostly cloudy
Temperature: 60 F (16 C)
Dew Point: 60 F (16 C)
Relative Humidity: 100%
Pressure (altimeter): 29.94 in. Hg (1013 hPa)
ob: CYYJ 212200Z 11009KT 8SM FEW005 FEW025 SCT060 BKN074 16/16 A2994 RMK SF1SC1SC3AC4 SF TR SC TR SLP141 DENSITY ALT 200FT
cycle: 22

Station Type Date Time Source
CYYJ TAF 2019/08/21 21:20 UTC NOAA

TAF
AMD CYYJ 212114Z 2121/2218 14012KT P6SM FEW012 SCT030 BKN070
TEMPO 2121/2204 5SM BR SCT012 BKN030 OVC070
FM220400 VRB03KT P6SM SCT015
TEMPO 2204/2218 FEW008 BKN015
BECMG 2214/2216 12008KT
RMK NXT FCST BY 220000Z

Example: see airport list